createdAt,value
2022-07-25T00:00:37.234Z,61.14
2022-07-25T00:03:10.848Z,57.71
2022-07-25T00:05:42.716Z,58.06
2022-07-25T00:08:14.340Z,59.64
2022-07-25T00:10:45.942Z,63.22
2022-07-25T00:13:17.556Z,64.96
2022-07-25T00:15:49.549Z,63.87
2022-07-25T00:18:21.229Z,61.41
2022-07-25T00:20:52.851Z,58.33
2022-07-25T00:23:24.539Z,57.45
2022-07-25T00:25:56.108Z,60.14
2022-07-25T00:28:26.105Z,65.91
2022-07-25T00:30:57.853Z,66.73
2022-07-25T00:33:29.347Z,63.77
2022-07-25T00:35:59.797Z,62.34
2022-07-25T00:38:31.371Z,63.00
2022-07-25T00:41:03.625Z,59.78
2022-07-25T00:43:35.403Z,56.72
2022-07-25T00:46:07.122Z,57.56
2022-07-25T00:48:40.396Z,59.16
2022-07-25T00:51:13.318Z,64.48
2022-07-25T00:53:45.852Z,64.94
2022-07-25T00:56:18.225Z,62.48
2022-07-25T00:58:49.768Z,60.89
2022-07-25T01:01:21.455Z,57.24
2022-07-25T01:03:53.252Z,56.43
2022-07-25T01:06:24.998Z,59.40
2022-07-25T01:08:57.033Z,63.37
2022-07-25T01:11:28.638Z,65.12
2022-07-25T01:14:00.401Z,62.83
2022-07-25T01:16:32.018Z,61.68
2022-07-25T01:19:03.668Z,57.85
2022-07-25T01:21:38.615Z,57.40
2022-07-25T01:24:11.268Z,59.28
2022-07-25T01:26:42.818Z,63.80
2022-07-25T01:29:12.994Z,65.26
2022-07-25T01:31:44.654Z,64.66
2022-07-25T01:34:16.364Z,61.76
2022-07-25T01:36:48.064Z,57.74
2022-07-25T01:39:19.687Z,56.82
2022-07-25T01:41:51.784Z,58.55
2022-07-25T01:44:23.421Z,62.57
2022-07-25T01:46:54.959Z,65.83
2022-07-25T01:49:26.777Z,64.10
2022-07-25T01:51:56.906Z,62.86
2022-07-25T01:54:28.480Z,60.71
2022-07-25T01:57:00.053Z,56.44
2022-07-25T01:59:32.599Z,56.55
2022-07-25T02:02:04.297Z,59.43
2022-07-25T02:04:37.426Z,62.74
2022-07-25T02:07:08.976Z,64.96
2022-07-25T02:09:40.024Z,62.83
2022-07-25T02:12:12.244Z,60.59
2022-07-25T02:14:43.871Z,57.07
2022-07-25T02:17:15.592Z,57.16
2022-07-25T02:19:47.315Z,59.03
2022-07-25T02:22:19.057Z,64.53
2022-07-25T02:24:50.669Z,65.26
2022-07-25T02:27:22.270Z,61.89
2022-07-25T02:29:53.932Z,58.19
2022-07-25T02:32:25.575Z,57.64
2022-07-25T02:34:58.397Z,58.91
2022-07-25T02:37:29.970Z,64.00
2022-07-25T02:40:01.806Z,65.23
2022-07-25T02:42:33.361Z,62.09
2022-07-25T02:45:03.512Z,60.72
2022-07-25T02:47:35.149Z,59.41
2022-07-25T02:50:07.849Z,55.20
2022-07-25T02:52:40.014Z,56.18
2022-07-25T02:55:13.782Z,58.97
2022-07-25T02:57:45.349Z,63.25
2022-07-25T03:00:16.901Z,65.58
2022-07-25T03:02:48.718Z,63.14
2022-07-25T03:05:20.560Z,59.96
2022-07-25T03:07:52.120Z,56.33
2022-07-25T03:10:22.267Z,55.79
2022-07-25T03:12:53.799Z,58.03
2022-07-25T03:15:23.972Z,64.33
2022-07-25T03:17:55.727Z,66.21
2022-07-25T03:20:27.626Z,62.62
2022-07-25T03:22:59.283Z,58.15
2022-07-25T03:25:31.044Z,57.88
2022-07-25T03:28:02.995Z,59.75
2022-07-25T03:30:34.685Z,63.39
2022-07-25T03:33:06.357Z,65.07
2022-07-25T03:35:39.390Z,62.15
2022-07-25T03:38:11.029Z,57.77
2022-07-25T03:40:42.586Z,55.53
2022-07-25T03:43:14.102Z,55.04
2022-07-25T03:45:44.285Z,54.91
2022-07-25T03:48:16.040Z,52.56
2022-07-25T03:50:47.730Z,52.61
2022-07-25T03:53:19.251Z,51.96
2022-07-25T03:55:50.808Z,50.54
2022-07-25T03:58:22.487Z,50.46
2022-07-25T04:00:54.076Z,49.17
2022-07-25T04:03:25.667Z,48.23
2022-07-25T04:05:57.301Z,46.82
2022-07-25T04:08:28.829Z,45.35
2022-07-25T04:11:00.357Z,44.12
2022-07-25T04:13:31.920Z,42.78
2022-07-25T04:16:03.511Z,41.52
2022-07-25T04:18:37.115Z,40.77
2022-07-25T04:21:10.380Z,39.85
2022-07-25T04:23:42.005Z,39.19
2022-07-25T04:26:13.497Z,38.25
2022-07-25T04:28:45.191Z,37.63
2022-07-25T04:31:17.050Z,36.66
2022-07-25T04:33:48.680Z,35.62
2022-07-25T04:36:20.248Z,34.64
2022-07-25T04:38:51.780Z,33.60
2022-07-25T04:41:23.461Z,32.80
2022-07-25T04:43:54.957Z,32.26
2022-07-25T04:46:26.666Z,31.73
2022-07-25T04:48:58.310Z,31.40
2022-07-25T04:51:29.966Z,30.90
2022-07-25T04:54:01.549Z,30.58
2022-07-25T04:56:33.070Z,30.31
2022-07-25T04:59:06.441Z,30.12
2022-07-25T05:01:38.579Z,29.98
2022-07-25T05:04:10.438Z,29.95
2022-07-25T05:06:42.092Z,29.49
2022-07-25T05:09:13.689Z,28.92
2022-07-25T05:11:48.736Z,28.58
2022-07-25T05:14:21.419Z,28.34
2022-07-25T05:16:52.983Z,28.35
2022-07-25T05:19:24.854Z,28.14
2022-07-25T05:21:56.361Z,27.72
2022-07-25T05:24:28.644Z,27.30
2022-07-25T05:27:00.128Z,26.85
2022-07-25T05:29:33.324Z,26.44
2022-07-25T05:32:05.218Z,25.85
2022-07-25T05:34:36.888Z,25.30
2022-07-25T05:37:08.409Z,25.00
2022-07-25T05:39:40.419Z,24.53
2022-07-25T05:42:12.059Z,24.32
2022-07-25T05:44:43.756Z,24.33
2022-07-25T05:47:15.877Z,24.03
2022-07-25T05:49:47.393Z,23.79
2022-07-25T05:52:18.928Z,24.23
2022-07-25T05:54:50.585Z,24.20
2022-07-25T05:57:22.160Z,23.94
2022-07-25T05:59:53.702Z,23.88
2022-07-25T06:02:25.737Z,23.43
2022-07-25T06:04:57.588Z,23.22
2022-07-25T06:07:29.193Z,23.12
2022-07-25T06:10:00.803Z,22.65
2022-07-25T06:12:33.632Z,22.56
2022-07-25T06:15:12.497Z,22.27
2022-07-25T06:17:53.911Z,22.89
2022-07-25T06:20:25.662Z,22.94
2022-07-25T06:22:57.287Z,23.18
2022-07-25T06:25:29.202Z,24.56
2022-07-25T06:28:01.132Z,23.79
2022-07-25T06:30:32.933Z,23.92
2022-07-25T06:33:04.601Z,23.90
2022-07-25T06:35:36.251Z,23.47
2022-07-25T06:38:08.563Z,22.30
2022-07-25T06:40:41.027Z,22.74
2022-07-25T06:43:13.105Z,22.69
2022-07-25T06:45:47.539Z,23.69
2022-07-25T06:48:19.821Z,22.63
2022-07-25T06:50:51.464Z,23.06
2022-07-25T06:53:23.052Z,22.46
2022-07-25T06:55:54.746Z,23.13
2022-07-25T06:58:26.296Z,23.80
2022-07-25T07:00:58.051Z,23.90
2022-07-25T07:03:29.698Z,24.26
2022-07-25T07:06:01.847Z,22.86
2022-07-25T07:08:33.705Z,22.14
2022-07-25T07:11:05.276Z,22.42
2022-07-25T07:13:37.185Z,21.46
2022-07-25T07:16:11.612Z,21.37
2022-07-25T07:18:47.238Z,21.23
2022-07-25T07:21:21.507Z,21.76
2022-07-25T07:23:53.885Z,21.86
2022-07-25T07:26:25.700Z,21.32
2022-07-25T07:28:57.321Z,21.50
2022-07-25T07:31:29.164Z,21.59
2022-07-25T07:34:00.991Z,22.84
2022-07-25T07:36:32.620Z,24.24
2022-07-25T07:39:04.550Z,25.74
2022-07-25T07:41:37.039Z,27.27
2022-07-25T07:44:09.812Z,28.75
2022-07-25T07:46:41.630Z,29.59
2022-07-25T07:49:13.584Z,31.28
2022-07-25T07:51:45.207Z,31.70
2022-07-25T07:54:34.626Z,32.81
2022-07-25T07:57:06.957Z,33.64
2022-07-25T07:59:38.658Z,34.09
2022-07-25T08:02:10.311Z,35.41
2022-07-25T08:04:41.916Z,35.38
2022-07-25T08:07:13.477Z,35.24
2022-07-25T08:09:45.057Z,35.40
2022-07-25T08:12:16.687Z,35.60
2022-07-25T08:14:48.387Z,35.89
2022-07-25T08:17:22.530Z,36.96
2022-07-25T08:20:09.422Z,36.44
2022-07-25T08:22:56.096Z,36.85
2022-07-25T08:25:28.471Z,38.31
2022-07-25T08:28:00.638Z,37.72
2022-07-25T08:30:32.162Z,37.81
2022-07-25T08:33:06.023Z,37.20
2022-07-25T08:35:38.595Z,37.43
2022-07-25T08:38:11.566Z,36.84
2022-07-25T08:40:43.538Z,36.16
2022-07-25T08:43:16.418Z,36.23
2022-07-25T08:45:50.103Z,36.36
2022-07-25T08:48:24.631Z,37.43
2022-07-25T08:50:58.155Z,37.31
2022-07-25T08:53:33.119Z,36.25
2022-07-25T08:56:14.623Z,36.23
2022-07-25T08:58:49.605Z,38.26
2022-07-25T09:01:21.274Z,37.30
2022-07-25T09:03:52.976Z,36.76
2022-07-25T09:06:24.877Z,37.04
2022-07-25T09:08:58.726Z,36.63
2022-07-25T09:11:35.730Z,36.48
2022-07-25T09:14:10.345Z,36.22
2022-07-25T09:16:44.392Z,36.47
2022-07-25T09:19:18.543Z,36.05
2022-07-25T09:22:02.005Z,36.91
2022-07-25T09:24:34.432Z,36.46
2022-07-25T09:27:13.307Z,35.49
2022-07-25T09:29:45.049Z,35.78
2022-07-25T09:32:22.752Z,35.68
2022-07-25T09:34:54.272Z,36.08
2022-07-25T09:37:29.073Z,36.93
2022-07-25T09:40:00.766Z,35.71
2022-07-25T09:42:33.584Z,36.33
2022-07-25T09:45:11.286Z,36.16
2022-07-25T09:47:53.194Z,36.21
2022-07-25T09:50:27.047Z,35.92
2022-07-25T09:53:02.010Z,36.12
2022-07-25T09:55:33.669Z,36.12
2022-07-25T09:58:05.338Z,36.40
2022-07-25T10:00:37.237Z,36.07
2022-07-25T10:03:18.953Z,36.50
2022-07-25T10:06:09.175Z,36.86
2022-07-25T10:08:42.325Z,36.92
2022-07-25T10:11:23.712Z,37.07
2022-07-25T10:13:56.493Z,36.02
2022-07-25T10:16:28.983Z,35.63
2022-07-25T10:19:01.064Z,36.15
2022-07-25T10:21:32.616Z,37.24
2022-07-25T10:24:07.069Z,37.82
2022-07-25T10:26:40.498Z,37.51
2022-07-25T10:29:13.164Z,36.09
2022-07-25T10:31:51.033Z,36.31
2022-07-25T10:34:33.147Z,36.04
2022-07-25T10:37:14.522Z,36.10
2022-07-25T10:39:48.611Z,36.30
2022-07-25T10:42:23.920Z,36.44
2022-07-25T10:44:57.477Z,37.09
2022-07-25T10:47:30.650Z,37.19
2022-07-25T10:50:22.028Z,37.06
2022-07-25T10:53:07.780Z,35.82
2022-07-25T10:55:39.464Z,36.04
2022-07-25T10:58:18.565Z,35.87
2022-07-25T11:00:51.231Z,36.07
2022-07-25T11:03:23.266Z,37.06
2022-07-25T11:05:56.087Z,36.70
2022-07-25T11:08:34.572Z,35.72
2022-07-25T11:11:06.334Z,35.85
2022-07-25T11:13:41.541Z,36.09
2022-07-25T11:16:13.566Z,35.54
2022-07-25T11:18:45.129Z,35.45
2022-07-25T11:21:16.741Z,34.63
2022-07-25T11:23:53.069Z,35.07
2022-07-25T11:26:24.606Z,35.09
2022-07-25T11:28:56.208Z,35.53
2022-07-25T11:31:27.878Z,36.47
2022-07-25T11:33:59.962Z,36.57
2022-07-25T11:36:32.275Z,36.05
2022-07-25T11:39:04.355Z,35.80
2022-07-25T11:41:36.388Z,36.43
2022-07-25T11:44:08.023Z,35.20
2022-07-25T11:46:45.637Z,35.18
2022-07-25T11:49:17.269Z,34.30
2022-07-25T11:51:49.040Z,34.41
2022-07-25T11:54:20.537Z,34.69
2022-07-25T11:56:52.177Z,34.65
2022-07-25T11:59:23.815Z,34.63
2022-07-25T12:01:55.475Z,34.74
2022-07-25T12:04:27.337Z,35.04
2022-07-25T12:07:06.747Z,36.37
2022-07-25T12:09:38.339Z,35.30
2022-07-25T12:12:10.963Z,34.53
2022-07-25T12:14:46.998Z,34.98
2022-07-25T12:17:18.860Z,34.06
2022-07-25T12:19:50.563Z,33.38
2022-07-25T12:22:22.272Z,33.69
2022-07-25T12:24:53.971Z,33.35
2022-07-25T12:27:25.873Z,33.11
2022-07-25T17:16:57.107Z,37.29
2022-07-25T17:19:31.462Z,37.43
2022-07-25T17:22:04.704Z,37.83
2022-07-25T17:24:37.222Z,38.21
2022-07-25T17:27:09.926Z,38.05
2022-07-25T17:29:41.883Z,39.14
2022-07-25T17:32:13.585Z,39.59
2022-07-25T17:34:45.674Z,39.92
2022-07-25T17:37:27.787Z,41.23
2022-07-25T17:40:01.443Z,41.76
2022-07-25T17:42:34.242Z,42.43
2022-07-25T17:45:08.472Z,43.32
2022-07-25T17:47:43.358Z,43.23
2022-07-25T17:50:16.871Z,43.90
2022-07-25T17:52:48.910Z,44.55
2022-07-25T17:55:21.769Z,45.14
2022-07-25T17:57:55.272Z,44.76
2022-07-25T18:00:27.319Z,45.15
2022-07-25T18:02:59.079Z,45.17
2022-07-25T18:05:31.263Z,45.36
2022-07-25T18:08:04.165Z,45.55
2022-07-25T18:10:35.782Z,46.57
2022-07-25T18:13:08.265Z,46.40
2022-07-25T18:15:40.339Z,47.04
2022-07-25T18:18:20.516Z,47.20
2022-07-25T18:20:54.058Z,47.81
2022-07-25T18:23:27.124Z,48.47
2022-07-25T18:25:58.897Z,48.93
2022-07-25T18:28:33.160Z,48.26
2022-07-25T18:31:05.771Z,48.12
2022-07-25T18:33:38.714Z,46.96
2022-07-25T18:36:11.425Z,47.03
2022-07-25T18:38:43.635Z,47.42
2022-07-25T18:41:30.994Z,48.11
2022-07-25T18:44:02.935Z,48.47
2022-07-25T18:46:34.731Z,48.84
2022-07-25T18:49:08.404Z,51.45
2022-07-25T18:51:40.705Z,52.59
2022-07-25T18:54:13.272Z,52.67
2022-07-25T18:56:45.270Z,51.16
2022-07-25T18:59:17.908Z,51.06
2022-07-25T19:01:51.203Z,51.31
2022-07-25T19:04:23.012Z,51.67
2022-07-25T19:06:54.792Z,51.35
2022-07-25T19:09:28.666Z,52.17
2022-07-25T19:12:01.225Z,52.73
2022-07-25T19:14:32.994Z,52.47
2022-07-25T19:17:05.969Z,53.01
2022-07-25T19:19:37.846Z,54.14
2022-07-25T19:22:09.938Z,55.58
2022-07-25T19:24:41.758Z,56.30
2022-07-25T19:27:13.449Z,56.48
2022-07-25T19:29:45.766Z,56.43
2022-07-25T19:32:18.267Z,56.53
2022-07-25T19:34:49.996Z,55.32
2022-07-25T19:37:21.701Z,54.01
2022-07-25T19:39:53.490Z,54.50
2022-07-25T19:42:25.091Z,53.70
2022-07-25T19:44:56.849Z,53.61
2022-07-25T19:47:28.704Z,53.44
2022-07-25T19:50:00.709Z,53.60
2022-07-25T19:52:32.510Z,55.24
2022-07-25T19:55:04.339Z,56.47
2022-07-25T19:57:35.954Z,56.74
2022-07-25T20:00:09.975Z,57.16
2022-07-25T20:02:44.372Z,57.03
2022-07-25T20:05:17.418Z,57.88
2022-07-25T20:07:49.849Z,58.72
2022-07-25T20:10:24.238Z,59.21
2022-07-25T20:13:01.103Z,59.55
2022-07-25T20:15:33.212Z,58.83
2022-07-25T20:18:06.912Z,59.30
2022-07-25T20:20:38.928Z,59.33
2022-07-25T20:23:10.948Z,60.16
2022-07-25T20:25:42.699Z,61.41
2022-07-25T20:28:14.248Z,66.75
2022-07-25T20:30:46.159Z,67.25
2022-07-25T20:33:19.172Z,62.91
2022-07-25T20:35:50.863Z,57.17
2022-07-25T20:38:23.130Z,55.35
2022-07-25T20:40:56.804Z,56.04
2022-07-25T20:43:29.814Z,56.43
2022-07-25T20:46:04.065Z,56.81
2022-07-25T20:48:38.047Z,57.32
2022-07-25T20:51:11.697Z,58.16
2022-07-25T20:53:43.292Z,58.79
2022-07-25T20:56:14.961Z,59.44
2022-07-25T20:58:46.730Z,60.18
2022-07-25T21:01:18.363Z,61.43
2022-07-25T21:03:49.928Z,66.73
2022-07-25T21:06:27.014Z,66.51
2022-07-25T21:08:58.883Z,62.51
2022-07-25T21:11:30.556Z,56.78
2022-07-25T21:14:03.172Z,55.64
2022-07-25T21:16:35.261Z,57.03
2022-07-25T21:19:07.039Z,57.78
2022-07-25T21:21:38.738Z,59.08
2022-07-25T21:24:12.595Z,59.10
2022-07-25T21:26:44.908Z,59.67
2022-07-25T21:29:16.596Z,59.82
2022-07-25T21:31:48.232Z,60.71
2022-07-25T21:34:20.025Z,65.24
2022-07-25T21:36:51.612Z,66.72
2022-07-25T21:39:23.458Z,62.43
2022-07-25T21:41:55.458Z,57.19
2022-07-25T21:44:27.259Z,55.82
2022-07-25T21:46:58.819Z,56.75
2022-07-25T21:49:48.214Z,57.98
2022-07-25T21:52:19.953Z,59.32
2022-07-25T21:55:03.040Z,59.97
2022-07-25T21:57:34.650Z,64.96
2022-07-25T22:00:09.714Z,66.25
2022-07-25T22:02:46.664Z,63.87
2022-07-25T22:05:19.484Z,58.65
2022-07-25T22:07:51.398Z,56.23
2022-07-25T22:10:23.677Z,57.15
2022-07-25T22:12:55.412Z,58.10
2022-07-25T22:15:27.260Z,59.83
2022-07-25T22:17:58.938Z,64.03
2022-07-25T22:20:30.651Z,66.18
2022-07-25T22:23:02.357Z,62.60
2022-07-25T22:25:34.017Z,58.38
2022-07-25T22:28:05.941Z,56.00
2022-07-25T22:30:41.129Z,58.39
2022-07-25T22:33:12.797Z,59.79
2022-07-25T22:35:44.523Z,64.40
2022-07-25T22:38:16.267Z,65.40
2022-07-25T22:40:47.985Z,62.28
2022-07-25T22:43:19.700Z,57.61
2022-07-25T22:45:52.681Z,56.53
2022-07-25T22:48:24.474Z,57.26
2022-07-25T22:50:56.221Z,59.28
2022-07-25T22:53:27.996Z,63.79
2022-07-25T22:55:59.733Z,65.24
2022-07-25T22:58:31.509Z,62.21
2022-07-25T23:01:03.172Z,57.24
2022-07-25T23:03:34.893Z,56.53
2022-07-25T23:06:06.846Z,57.67
2022-07-25T23:08:38.519Z,58.89
2022-07-25T23:11:10.687Z,60.02
2022-07-25T23:13:42.536Z,63.64
2022-07-25T23:16:14.295Z,65.29
2022-07-25T23:18:46.217Z,62.55
2022-07-25T23:21:17.865Z,58.32
2022-07-25T23:23:49.558Z,57.40
2022-07-25T23:26:21.374Z,58.63
2022-07-25T23:28:53.034Z,59.69
2022-07-25T23:31:24.837Z,63.95
2022-07-25T23:33:56.547Z,65.35
2022-07-25T23:36:28.309Z,62.29
2022-07-25T23:38:59.787Z,58.24
2022-07-25T23:41:31.316Z,56.71
2022-07-25T23:44:03.200Z,58.18
2022-07-25T23:46:35.770Z,59.57
2022-07-25T23:49:09.960Z,64.32
2022-07-25T23:51:41.978Z,65.11
2022-07-25T23:54:13.704Z,62.13
2022-07-25T23:56:45.419Z,56.88
2022-07-25T23:59:17.043Z,56.11
